createdAt,value
2023-05-03T00:00:03.064Z,2.11
2023-05-03T00:01:02.785Z,2.11
2023-05-03T00:02:02.884Z,2.14
2023-05-03T00:03:02.934Z,2.18
2023-05-03T00:04:02.900Z,2.14
2023-05-03T00:05:03.329Z,2.17
2023-05-03T00:06:03.010Z,2.09
2023-05-03T00:07:03.053Z,2.01
2023-05-03T00:08:03.089Z,2.03
2023-05-03T00:09:03.121Z,1.99
2023-05-03T00:10:03.359Z,2.09
2023-05-03T00:11:03.206Z,2.07
2023-05-03T00:12:03.281Z,2.05
2023-05-03T00:13:03.293Z,2.05
2023-05-03T00:14:03.330Z,2.05
2023-05-03T00:15:03.393Z,2.05
2023-05-03T00:16:03.420Z,2.06
2023-05-03T00:17:03.538Z,2.04
2023-05-03T00:18:03.496Z,2.11
2023-05-03T00:19:03.480Z,2.08
2023-05-03T00:20:03.701Z,2.07
2023-05-03T00:21:03.507Z,2.13
2023-05-03T00:22:03.578Z,2.13
2023-05-03T00:23:03.580Z,2.15
2023-05-03T00:24:03.721Z,2.15
2023-05-03T00:25:03.658Z,2.17
2023-05-03T00:26:03.687Z,2.20
2023-05-03T00:27:03.719Z,2.20
2023-05-03T00:28:03.756Z,2.18
2023-05-03T00:29:03.794Z,2.23
2023-05-03T00:30:04.042Z,2.19
2023-05-03T00:31:03.848Z,2.30
2023-05-03T00:32:03.851Z,2.43
2023-05-03T00:33:03.916Z,2.63
2023-05-03T00:34:03.887Z,2.74
2023-05-03T00:35:03.914Z,2.72
2023-05-03T00:36:03.929Z,2.82
2023-05-03T00:37:03.960Z,2.76
2023-05-03T00:38:03.982Z,2.82
2023-05-03T00:39:04.024Z,2.88
2023-05-03T00:40:04.222Z,2.76
2023-05-03T00:41:04.070Z,2.75
2023-05-03T00:42:04.212Z,2.74
2023-05-03T00:43:04.139Z,2.60
2023-05-03T00:44:04.204Z,2.63
2023-05-03T00:45:04.257Z,2.69
2023-05-03T00:46:12.871Z,2.74
2023-05-03T00:47:05.313Z,2.75
2023-05-03T00:48:04.293Z,2.74
2023-05-03T00:49:04.261Z,2.76
2023-05-03T00:50:04.584Z,2.80
2023-05-03T00:51:04.252Z,2.98
2023-05-03T00:52:04.267Z,3.06
2023-05-03T00:53:04.244Z,2.96
2023-05-03T00:54:04.227Z,2.77
2023-05-03T00:55:04.220Z,2.78
2023-05-03T00:56:04.230Z,2.70
2023-05-03T00:57:04.226Z,2.72
2023-05-03T00:58:04.285Z,2.77
2023-05-03T00:59:04.301Z,2.94
2023-05-03T01:00:04.732Z,2.92
2023-05-03T01:01:04.396Z,3.00
2023-05-03T01:02:04.642Z,2.89
2023-05-03T01:03:04.583Z,2.79
2023-05-03T01:04:04.666Z,2.60
2023-05-03T01:05:04.575Z,2.61
2023-05-03T01:06:04.684Z,2.73
2023-05-03T01:07:04.678Z,2.77
2023-05-03T01:08:04.751Z,2.76
2023-05-03T01:09:04.779Z,2.69
2023-05-03T01:10:05.179Z,2.55
2023-05-03T01:11:04.850Z,2.47
2023-05-03T01:12:04.926Z,2.40
2023-05-03T01:13:04.951Z,2.42
2023-05-03T01:14:04.983Z,2.48
2023-05-03T01:15:05.016Z,2.45
2023-05-03T01:16:05.111Z,2.47
2023-05-03T01:17:05.107Z,2.48
2023-05-03T01:18:05.164Z,2.42
2023-05-03T01:19:05.189Z,2.31
2023-05-03T01:20:05.563Z,2.21
2023-05-03T01:21:05.327Z,2.25
2023-05-03T01:22:05.311Z,2.23
2023-05-03T01:23:05.365Z,2.23
2023-05-03T01:24:05.419Z,2.24
2023-05-03T01:25:05.476Z,2.24
2023-05-03T01:26:05.534Z,2.23
2023-05-03T01:27:05.563Z,2.26
2023-05-03T01:28:05.593Z,2.31
2023-05-03T01:29:05.639Z,2.49
2023-05-03T01:30:05.671Z,2.48
2023-05-03T01:31:05.717Z,2.46
2023-05-03T01:32:07.573Z,2.55
2023-05-03T01:33:05.837Z,2.68
2023-05-03T01:34:05.829Z,2.70
2023-05-03T01:35:05.868Z,2.67
2023-05-03T01:36:05.879Z,2.67
2023-05-03T01:37:05.934Z,2.68
2023-05-03T01:38:05.952Z,3.01
2023-05-03T01:39:05.994Z,3.29
2023-05-03T01:40:06.261Z,3.46
2023-05-03T01:41:06.060Z,3.26
2023-05-03T01:42:06.103Z,3.19
2023-05-03T01:43:06.127Z,3.04
2023-05-03T01:44:06.154Z,2.93
2023-05-03T01:45:06.154Z,2.95
2023-05-03T01:46:06.250Z,2.89
2023-05-03T01:47:06.237Z,2.92
2023-05-03T01:48:06.296Z,2.90
2023-05-03T01:49:06.287Z,2.94
2023-05-03T01:50:06.316Z,2.95
2023-05-03T01:51:06.356Z,2.98
2023-05-03T01:52:06.380Z,3.00
2023-05-03T01:53:06.399Z,3.03
2023-05-03T01:54:06.438Z,2.93
2023-05-03T01:55:06.456Z,2.94
2023-05-03T01:56:06.488Z,2.96
2023-05-03T01:57:06.528Z,3.02
2023-05-03T01:58:06.574Z,3.03
2023-05-03T01:59:06.597Z,2.91
2023-05-03T02:00:06.743Z,2.95
2023-05-03T02:01:06.770Z,3.03
2023-05-03T02:02:06.750Z,3.00
2023-05-03T02:03:06.835Z,3.03
2023-05-03T02:04:06.870Z,3.05
2023-05-03T02:05:06.858Z,3.07
2023-05-03T02:06:06.907Z,3.07
2023-05-03T02:07:06.923Z,3.08
2023-05-03T02:08:06.939Z,2.98
2023-05-03T02:09:06.975Z,3.06
2023-05-03T02:10:06.996Z,2.91
2023-05-03T02:11:07.037Z,2.91
2023-05-03T02:12:07.073Z,2.92
2023-05-03T02:13:07.079Z,2.89
2023-05-03T02:14:07.139Z,2.87
2023-05-03T02:15:07.131Z,2.80
2023-05-03T02:16:07.184Z,2.84
2023-05-03T02:17:07.242Z,2.75
2023-05-03T02:18:07.277Z,2.71
2023-05-03T02:19:07.274Z,2.75
2023-05-03T02:20:07.302Z,2.84
2023-05-03T02:21:07.324Z,2.90
2023-05-03T02:22:07.365Z,2.90
2023-05-03T02:23:07.390Z,2.85
2023-05-03T02:24:07.430Z,2.80
2023-05-03T02:25:07.467Z,2.85
2023-05-03T02:26:07.485Z,2.90
2023-05-03T02:27:07.519Z,2.99
2023-05-03T02:28:07.548Z,3.03
2023-05-03T02:29:07.600Z,2.94
2023-05-03T02:30:07.861Z,2.86
2023-05-03T02:31:07.748Z,2.87
2023-05-03T02:32:07.737Z,2.96
2023-05-03T02:33:07.814Z,2.91
2023-05-03T02:34:07.827Z,2.91
2023-05-03T02:35:07.842Z,3.01
2023-05-03T02:36:07.870Z,3.10
2023-05-03T02:37:07.905Z,3.04
2023-05-03T02:38:07.916Z,3.10
2023-05-03T02:39:07.957Z,3.12
2023-05-03T02:40:07.957Z,3.01
2023-05-03T02:41:08.004Z,3.13
2023-05-03T02:42:08.036Z,3.14
2023-05-03T02:43:08.083Z,3.16
2023-05-03T02:44:08.112Z,3.27
2023-05-03T02:45:08.136Z,3.41
2023-05-03T02:46:08.235Z,3.30
2023-05-03T02:47:08.197Z,3.30
2023-05-03T02:48:08.327Z,3.22
2023-05-03T02:49:08.267Z,3.26
2023-05-03T02:50:08.351Z,3.24
2023-05-03T02:51:08.334Z,3.37
2023-05-03T02:52:08.384Z,3.46
2023-05-03T02:53:08.398Z,3.54
2023-05-03T02:54:08.433Z,3.45
2023-05-03T02:55:08.502Z,3.50
2023-05-03T02:56:08.514Z,3.39
2023-05-03T02:57:08.550Z,3.47
2023-05-03T02:58:08.565Z,3.36
2023-05-03T02:59:08.589Z,3.44
2023-05-03T03:00:08.639Z,3.36
2023-05-03T03:01:08.718Z,3.40
2023-05-03T03:02:08.751Z,3.36
2023-05-03T03:03:08.876Z,3.28
2023-05-03T03:04:09.027Z,3.29
2023-05-03T03:05:08.814Z,3.33
2023-05-03T03:06:08.903Z,3.35
2023-05-03T03:07:08.897Z,3.36
2023-05-03T03:08:08.918Z,3.43
2023-05-03T03:09:08.930Z,3.45
2023-05-03T03:10:08.941Z,3.35
2023-05-03T03:11:09.058Z,3.28
2023-05-03T03:12:09.043Z,3.23
2023-05-03T03:13:09.071Z,3.10
2023-05-03T03:14:09.114Z,2.99
2023-05-03T03:15:09.148Z,3.05
2023-05-03T03:16:09.170Z,3.00
2023-05-03T03:17:09.221Z,2.98
2023-05-03T03:18:09.320Z,2.94
2023-05-03T03:19:09.266Z,3.03
2023-05-03T03:20:09.286Z,2.98
2023-05-03T03:21:09.308Z,2.95
2023-05-03T03:22:09.323Z,2.96
2023-05-03T03:23:09.352Z,2.95
2023-05-03T03:24:09.459Z,2.97
2023-05-03T03:25:09.464Z,3.02
2023-05-03T03:26:09.510Z,3.01
2023-05-03T03:27:09.461Z,3.04
2023-05-03T03:28:09.561Z,3.07
2023-05-03T03:29:09.541Z,3.03
2023-05-03T03:30:09.615Z,3.16
2023-05-03T03:31:09.664Z,3.19
2023-05-03T03:32:10.531Z,3.18
2023-05-03T03:33:09.750Z,3.07
2023-05-03T03:34:09.707Z,2.97
2023-05-03T03:35:09.717Z,2.98
2023-05-03T03:36:09.757Z,2.92
2023-05-03T03:37:09.804Z,2.88
2023-05-03T03:38:09.849Z,2.99
2023-05-03T03:39:09.839Z,2.95
2023-05-03T03:40:09.941Z,2.84
2023-05-03T03:41:09.893Z,2.77
2023-05-03T03:42:09.931Z,2.70
2023-05-03T03:43:10.031Z,2.63
2023-05-03T03:44:09.997Z,2.64
2023-05-03T03:45:10.046Z,2.62
2023-05-03T03:46:10.109Z,2.70
2023-05-03T03:47:10.182Z,2.65
2023-05-03T03:48:10.279Z,2.57
2023-05-03T03:49:10.211Z,2.62
2023-05-03T03:50:10.249Z,2.64
2023-05-03T03:51:10.295Z,2.65
2023-05-03T03:52:10.347Z,2.74
2023-05-03T03:53:10.362Z,2.67
2023-05-03T03:54:10.379Z,2.71
2023-05-03T03:55:10.415Z,2.64
2023-05-03T03:56:10.449Z,2.57
2023-05-03T03:57:10.479Z,2.57
2023-05-03T03:58:10.520Z,2.46
2023-05-03T03:59:10.536Z,2.48
2023-05-03T04:00:10.564Z,2.50
2023-05-03T04:01:10.607Z,2.48
2023-05-03T04:02:10.667Z,2.53
2023-05-03T04:03:10.743Z,2.45
2023-05-03T04:04:10.765Z,2.46
2023-05-03T04:05:10.718Z,2.39
2023-05-03T04:06:10.770Z,2.37
2023-05-03T04:07:10.792Z,2.40
2023-05-03T04:08:10.825Z,2.27
2023-05-03T04:09:10.865Z,2.25
2023-05-03T04:10:10.871Z,2.25
2023-05-03T04:11:10.904Z,2.19
2023-05-03T04:12:10.915Z,2.13
2023-05-03T04:13:10.963Z,2.06
2023-05-03T04:14:11.000Z,2.18
2023-05-03T04:15:11.030Z,2.15
2023-05-03T04:16:11.067Z,2.13
2023-05-03T04:17:11.145Z,2.10
2023-05-03T04:18:11.146Z,2.09
2023-05-03T04:19:11.140Z,2.03
2023-05-03T04:20:11.258Z,2.00
2023-05-03T04:21:11.231Z,1.91
2023-05-03T04:22:11.272Z,1.91
2023-05-03T04:23:11.311Z,1.88
2023-05-03T04:24:11.329Z,1.85
2023-05-03T04:25:11.349Z,1.90
2023-05-03T04:26:23.496Z,1.94
2023-05-03T04:27:12.395Z,1.94
2023-05-03T04:28:11.383Z,1.95
2023-05-03T04:29:11.375Z,1.97
2023-05-03T04:30:11.366Z,1.94
2023-05-03T04:31:11.383Z,1.95
2023-05-03T04:32:11.353Z,1.97
2023-05-03T04:33:11.355Z,2.08
2023-05-03T04:34:11.322Z,2.34
2023-05-03T04:35:11.314Z,2.34
2023-05-03T04:36:11.307Z,2.33
2023-05-03T04:37:11.317Z,2.42
2023-05-03T04:38:11.323Z,2.44
2023-05-03T04:39:11.308Z,2.47
2023-05-03T04:40:11.338Z,2.48
2023-05-03T04:41:11.912Z,2.56
2023-05-03T04:42:11.408Z,2.62
2023-05-03T04:43:11.432Z,2.56
2023-05-03T04:44:11.480Z,2.36
2023-05-03T04:45:11.500Z,2.36
2023-05-03T04:46:11.558Z,2.22
2023-05-03T04:47:11.577Z,2.14
2023-05-03T04:48:11.691Z,2.12
2023-05-03T04:49:11.638Z,2.12
2023-05-03T04:50:11.697Z,2.05
2023-05-03T04:51:11.710Z,1.96
2023-05-03T04:52:11.734Z,1.95
2023-05-03T04:53:11.758Z,2.04
2023-05-03T04:54:11.797Z,2.21
2023-05-03T04:55:11.832Z,2.42
2023-05-03T04:56:11.831Z,2.53
2023-05-03T04:57:11.896Z,2.44
2023-05-03T04:58:11.941Z,2.45
2023-05-03T04:59:11.970Z,2.31
2023-05-03T05:00:12.053Z,2.27
2023-05-03T05:01:12.085Z,2.21
2023-05-03T05:02:12.076Z,2.09
2023-05-03T05:03:12.184Z,2.05
2023-05-03T05:04:12.132Z,2.02
2023-05-03T05:05:12.202Z,1.98
2023-05-03T05:06:12.265Z,1.98
2023-05-03T05:07:12.287Z,1.91
2023-05-03T05:08:12.306Z,1.89
2023-05-03T05:09:12.344Z,1.88
2023-05-03T05:10:12.416Z,1.78
2023-05-03T05:11:12.453Z,1.74
2023-05-03T05:12:12.479Z,1.73
2023-05-03T05:13:12.518Z,1.72
2023-05-03T05:14:12.571Z,1.82
2023-05-03T05:15:12.628Z,1.83
2023-05-03T05:16:12.684Z,1.84
2023-05-03T05:17:12.765Z,1.90
2023-05-03T05:18:12.818Z,1.91
2023-05-03T05:19:12.806Z,1.87
2023-05-03T05:20:12.846Z,1.87
2023-05-03T05:21:12.897Z,1.91
2023-05-03T05:22:12.922Z,1.87
2023-05-03T05:23:12.992Z,1.82
2023-05-03T05:24:13.039Z,1.83
2023-05-03T05:25:13.077Z,1.83
2023-05-03T05:26:13.126Z,1.84
2023-05-03T05:27:13.181Z,1.67
2023-05-03T05:28:13.256Z,1.87
2023-05-03T05:29:13.285Z,2.20
2023-05-03T05:30:13.303Z,2.52
2023-05-03T05:31:13.489Z,2.83
2023-05-03T05:32:13.327Z,3.20
2023-05-03T05:33:13.611Z,3.68
2023-05-03T05:34:13.393Z,4.13
2023-05-03T05:35:13.473Z,4.41
2023-05-03T05:36:13.460Z,4.99
2023-05-03T05:37:13.522Z,5.87
2023-05-03T05:38:13.573Z,6.36
2023-05-03T05:39:13.584Z,7.01
2023-05-03T05:40:13.645Z,7.25
2023-05-03T05:41:13.670Z,7.80
2023-05-03T05:42:13.713Z,8.26
2023-05-03T05:43:13.767Z,8.58
2023-05-03T05:44:13.787Z,9.27
2023-05-03T05:45:13.829Z,9.63
2023-05-03T05:46:13.842Z,10.39
2023-05-03T05:47:14.138Z,10.60
2023-05-03T05:48:14.024Z,10.93
2023-05-03T05:49:13.908Z,11.49
2023-05-03T05:50:18.288Z,11.62
2023-05-03T05:51:14.913Z,11.66
2023-05-03T05:52:13.912Z,11.77
2023-05-03T05:53:13.933Z,12.00
2023-05-03T05:54:13.903Z,12.64
2023-05-03T05:55:13.886Z,13.40
2023-05-03T05:56:13.869Z,14.26
2023-05-03T05:57:13.896Z,14.42
2023-05-03T05:58:13.998Z,14.83
2023-05-03T05:59:13.855Z,15.03
2023-05-03T06:00:13.857Z,15.46
2023-05-03T06:01:13.841Z,15.57
2023-05-03T06:02:13.904Z,15.90
2023-05-03T06:03:13.911Z,16.52
2023-05-03T06:04:13.854Z,17.16
2023-05-03T06:05:13.872Z,17.43
2023-05-03T06:06:13.843Z,17.59
2023-05-03T06:07:13.815Z,17.87
2023-05-03T06:08:13.798Z,18.09
2023-05-03T06:09:24.261Z,18.80
2023-05-03T06:10:14.858Z,18.87
2023-05-03T06:11:13.818Z,19.28
2023-05-03T06:12:13.836Z,20.19
2023-05-03T06:13:13.824Z,21.67
2023-05-03T06:14:13.814Z,23.19
2023-05-03T06:15:13.818Z,23.20
2023-05-03T06:16:13.800Z,23.31
2023-05-03T06:17:13.905Z,22.99
2023-05-03T06:18:13.817Z,23.28
2023-05-03T06:19:13.767Z,22.78
2023-05-03T06:20:13.813Z,23.36
2023-05-03T06:21:13.783Z,22.66
2023-05-03T06:22:13.781Z,22.63
2023-05-03T06:23:13.812Z,22.35
2023-05-03T06:24:13.877Z,22.27
2023-05-03T06:25:15.474Z,22.48
2023-05-03T06:26:13.858Z,22.89
2023-05-03T06:27:13.977Z,21.99
2023-05-03T06:28:13.849Z,20.71
2023-05-03T06:29:13.842Z,20.11
2023-05-03T06:30:13.847Z,19.66
2023-05-03T06:31:13.876Z,19.93
2023-05-03T06:32:13.852Z,19.35
2023-05-03T06:33:14.141Z,17.15
2023-05-03T06:34:13.818Z,17.22
2023-05-03T06:35:13.796Z,17.12
2023-05-03T06:36:13.794Z,16.11
2023-05-03T06:37:13.792Z,15.17
2023-05-03T06:38:13.794Z,14.21
2023-05-03T06:39:13.792Z,14.17
2023-05-03T06:40:13.894Z,15.36
2023-05-03T06:41:13.813Z,15.85
2023-05-03T06:42:14.115Z,16.12
2023-05-03T06:43:13.736Z,16.61
2023-05-03T06:44:13.735Z,18.20
2023-05-03T06:45:13.736Z,19.24
2023-05-03T06:46:13.781Z,19.26
2023-05-03T06:47:14.130Z,18.83
2023-05-03T06:48:14.228Z,18.58
2023-05-03T06:49:13.711Z,18.58
2023-05-03T06:50:13.677Z,18.01
2023-05-03T06:51:13.697Z,17.33
2023-05-03T06:52:13.687Z,17.31
2023-05-03T06:53:13.841Z,16.87
2023-05-03T06:54:13.741Z,14.94
2023-05-03T06:55:13.634Z,13.84
2023-05-03T06:56:13.627Z,12.22
2023-05-03T06:57:13.661Z,11.14
2023-05-03T06:58:13.625Z,10.88
2023-05-03T06:59:13.614Z,9.77
2023-05-03T07:00:13.603Z,9.93
2023-05-03T07:01:13.670Z,10.22
2023-05-03T07:02:13.726Z,11.22
2023-05-03T07:03:13.656Z,11.70
2023-05-03T07:04:13.745Z,11.84
2023-05-03T07:05:13.561Z,12.36
2023-05-03T07:06:13.594Z,11.37
2023-05-03T07:07:13.612Z,11.07
2023-05-03T07:08:13.563Z,10.98
2023-05-03T07:09:13.544Z,10.43
2023-05-03T07:10:13.552Z,8.43
2023-05-03T07:11:13.568Z,9.52
2023-05-03T07:12:13.600Z,10.03
2023-05-03T07:13:13.630Z,9.94
2023-05-03T07:14:13.653Z,11.78
2023-05-03T07:15:13.709Z,9.40
2023-05-03T07:16:13.813Z,10.24
2023-05-03T07:17:13.729Z,8.68
2023-05-03T07:18:13.767Z,8.97
2023-05-03T07:19:13.755Z,9.84
2023-05-03T07:20:13.751Z,10.50
2023-05-03T07:21:13.794Z,10.18
2023-05-03T07:22:13.991Z,9.03
2023-05-03T07:23:13.886Z,9.50
2023-05-03T07:24:13.897Z,10.13
2023-05-03T07:25:13.998Z,10.48
2023-05-03T07:26:13.919Z,9.98
2023-05-03T07:27:13.974Z,8.24
2023-05-03T07:28:13.998Z,7.62
2023-05-03T07:29:13.991Z,6.89
2023-05-03T07:30:14.008Z,5.72
2023-05-03T07:31:14.049Z,5.65
2023-05-03T07:32:14.067Z,5.88
2023-05-03T07:33:14.132Z,6.16
2023-05-03T07:34:14.144Z,6.32
2023-05-03T07:35:14.135Z,7.03
2023-05-03T07:36:14.174Z,5.94
2023-05-03T07:37:14.186Z,4.72
2023-05-03T07:38:14.631Z,3.38
2023-05-03T07:39:14.236Z,2.43
2023-05-03T07:40:14.266Z,1.83
2023-05-03T07:41:14.310Z,1.47
2023-05-03T07:42:14.373Z,1.33
2023-05-03T07:43:14.404Z,1.67
2023-05-03T07:44:14.424Z,2.41
2023-05-03T07:45:14.434Z,2.75
2023-05-03T07:46:14.490Z,3.00
2023-05-03T07:47:14.499Z,3.53
2023-05-03T07:48:14.557Z,3.86
2023-05-03T07:49:14.602Z,3.81
2023-05-03T07:50:14.614Z,3.66
2023-05-03T07:51:14.644Z,3.66
2023-05-03T07:52:14.648Z,3.44
2023-05-03T07:53:14.871Z,2.71
2023-05-03T07:54:14.677Z,2.71
2023-05-03T07:55:14.688Z,2.63
2023-05-03T07:56:14.711Z,2.68
2023-05-03T07:57:14.760Z,2.85
2023-05-03T07:58:14.760Z,2.86
2023-05-03T07:59:14.800Z,2.70
2023-05-03T08:00:14.790Z,2.77
2023-05-03T08:01:14.846Z,2.84
2023-05-03T08:02:14.937Z,2.75
2023-05-03T08:03:15.041Z,2.81
2023-05-03T08:04:15.065Z,2.78
2023-05-03T08:05:15.145Z,2.80
2023-05-03T08:06:15.012Z,2.54
2023-05-03T08:07:15.009Z,2.40
2023-05-03T08:08:15.029Z,2.33
2023-05-03T08:09:15.099Z,2.57
2023-05-03T08:10:15.054Z,2.83
2023-05-03T08:11:15.096Z,2.87
2023-05-03T08:12:15.151Z,2.86
2023-05-03T08:13:15.144Z,2.71
2023-05-03T08:14:15.203Z,2.86
2023-05-03T08:15:15.323Z,2.96
2023-05-03T08:16:15.244Z,3.01
2023-05-03T08:17:15.286Z,3.02
2023-05-03T08:18:15.502Z,2.99
2023-05-03T08:19:15.327Z,2.99
2023-05-03T08:20:15.339Z,3.03
2023-05-03T08:21:15.403Z,3.04
2023-05-03T08:22:15.657Z,3.19
2023-05-03T08:23:16.677Z,3.20
2023-05-03T08:24:16.230Z,3.24
2023-05-03T08:25:15.516Z,3.26
2023-05-03T08:26:15.537Z,3.33
2023-05-03T08:27:15.564Z,3.22
2023-05-03T08:28:15.588Z,3.03
2023-05-03T08:29:15.641Z,2.53
2023-05-03T08:30:15.716Z,2.24
2023-05-03T08:31:15.829Z,2.01
2023-05-03T08:32:15.717Z,1.98
2023-05-03T08:33:16.191Z,1.90
2023-05-03T08:34:16.186Z,1.85
2023-05-03T08:35:15.794Z,1.95
2023-05-03T08:36:15.836Z,1.64
2023-05-03T08:37:15.853Z,1.50
2023-05-03T08:38:16.176Z,1.74
2023-05-03T08:39:15.928Z,1.91
2023-05-03T08:40:15.912Z,1.51
2023-05-03T08:41:15.938Z,1.47
2023-05-03T08:42:15.959Z,1.69
2023-05-03T08:43:15.982Z,1.44
2023-05-03T08:44:16.016Z,1.60
2023-05-03T08:45:16.061Z,1.78
2023-05-03T08:46:16.096Z,1.79
2023-05-03T08:47:16.085Z,1.57
2023-05-03T08:48:16.158Z,1.76
2023-05-03T08:49:16.190Z,1.84
2023-05-03T08:50:16.213Z,1.90
2023-05-03T08:51:16.306Z,1.76
2023-05-03T08:52:16.284Z,1.85
2023-05-03T08:53:16.689Z,1.65
2023-05-03T08:54:16.348Z,1.52
2023-05-03T08:55:16.396Z,1.68
2023-05-03T08:56:16.396Z,1.78
2023-05-03T08:57:16.422Z,1.48
2023-05-03T08:58:16.482Z,1.56
2023-05-03T08:59:16.522Z,1.82
2023-05-03T09:00:16.555Z,1.68
2023-05-03T09:01:16.562Z,1.47
2023-05-03T09:02:16.652Z,1.42
2023-05-03T09:03:16.839Z,1.42
2023-05-03T09:04:16.829Z,1.42
2023-05-03T09:05:16.765Z,1.45
2023-05-03T09:06:16.774Z,1.46
2023-05-03T09:07:16.816Z,1.44
2023-05-03T09:08:16.848Z,1.44
2023-05-03T09:09:16.852Z,1.27
2023-05-03T09:10:16.893Z,1.36
2023-05-03T09:11:16.907Z,1.54
2023-05-03T09:12:16.964Z,1.36
2023-05-03T09:13:17.002Z,1.03
2023-05-03T09:14:17.027Z,1.02
2023-05-03T09:15:17.063Z,1.24
2023-05-03T09:16:17.142Z,1.21
2023-05-03T09:17:17.162Z,1.10
2023-05-03T09:18:17.335Z,1.18
2023-05-03T09:19:17.239Z,1.25
2023-05-03T09:20:17.285Z,1.08
2023-05-03T09:21:17.302Z,1.06
2023-05-03T09:22:17.352Z,0.97
2023-05-03T09:23:17.390Z,0.95
2023-05-03T09:24:17.553Z,0.94
2023-05-03T09:25:17.477Z,0.80
2023-05-03T09:26:17.490Z,0.83
2023-05-03T09:27:17.544Z,0.68
2023-05-03T09:28:17.572Z,0.70
2023-05-03T09:29:17.616Z,0.67
2023-05-03T09:30:17.655Z,0.75
2023-05-03T09:31:17.707Z,0.80
2023-05-03T09:32:17.771Z,0.78
2023-05-03T09:33:17.813Z,0.81
2023-05-03T09:34:17.839Z,0.85
2023-05-03T09:35:17.918Z,0.68
2023-05-03T09:36:17.936Z,0.71
2023-05-03T09:37:17.986Z,0.72
2023-05-03T09:38:18.179Z,0.93
2023-05-03T09:39:18.054Z,1.04
2023-05-03T09:40:18.094Z,0.86
2023-05-03T09:41:18.126Z,0.95
2023-05-03T09:42:18.172Z,0.73
2023-05-03T09:43:19.619Z,0.69
2023-05-03T09:44:18.240Z,0.71
2023-05-03T09:45:18.315Z,0.71
2023-05-03T09:46:18.380Z,0.59
2023-05-03T09:47:18.380Z,0.56
2023-05-03T09:48:18.370Z,0.55
2023-05-03T09:49:18.433Z,0.47
2023-05-03T09:50:18.504Z,0.50
2023-05-03T09:51:18.629Z,0.56
2023-05-03T09:52:18.586Z,0.56
2023-05-03T09:53:18.658Z,0.65
2023-05-03T09:54:18.691Z,1.04
2023-05-03T09:55:18.705Z,0.92
2023-05-03T09:56:18.746Z,0.89
2023-05-03T09:57:18.780Z,1.06
2023-05-03T09:58:18.820Z,1.08
2023-05-03T09:59:18.841Z,1.05
2023-05-03T10:00:18.841Z,0.78
2023-05-03T10:01:18.949Z,0.60
2023-05-03T10:02:18.893Z,0.61
2023-05-03T10:03:18.914Z,0.65
2023-05-03T10:04:18.945Z,0.65
2023-05-03T10:05:18.948Z,0.66
2023-05-03T10:06:19.018Z,0.63
2023-05-03T10:07:18.992Z,0.60
2023-05-03T10:08:19.022Z,0.50
2023-05-03T10:09:19.045Z,0.34
2023-05-03T10:10:19.082Z,0.38
2023-05-03T10:11:19.125Z,0.50
2023-05-03T10:12:19.216Z,0.50
2023-05-03T10:13:19.227Z,0.51
2023-05-03T10:14:19.257Z,0.52
2023-05-03T10:15:19.303Z,0.52
2023-05-03T10:16:19.469Z,0.57
2023-05-03T10:17:19.436Z,0.55
2023-05-03T10:18:19.560Z,0.52
2023-05-03T10:19:19.530Z,0.50
2023-05-03T10:20:19.575Z,0.50
2023-05-03T10:21:19.602Z,0.52
2023-05-03T10:22:19.649Z,0.54
2023-05-03T10:23:19.803Z,0.50
2023-05-03T10:24:19.714Z,0.56
2023-05-03T10:25:19.725Z,0.55
2023-05-03T10:26:19.785Z,0.61
2023-05-03T10:27:19.796Z,0.57
2023-05-03T10:28:19.793Z,0.58
2023-05-03T10:29:19.851Z,0.51
2023-05-03T10:30:19.865Z,0.54
2023-05-03T10:31:19.961Z,0.52
2023-05-03T10:32:19.947Z,0.51
2023-05-03T10:33:19.972Z,0.51
2023-05-03T10:34:20.017Z,0.49
2023-05-03T10:35:19.998Z,0.55
2023-05-03T10:36:20.053Z,0.54
2023-05-03T10:37:20.072Z,0.45
2023-05-03T10:38:20.152Z,0.51
2023-05-03T10:39:20.369Z,0.52
2023-05-03T10:40:20.141Z,0.52
2023-05-03T10:41:20.184Z,0.52
2023-05-03T10:42:20.205Z,0.52
2023-05-03T10:43:20.238Z,0.51
2023-05-03T10:44:20.280Z,0.50
2023-05-03T10:45:20.293Z,0.51
2023-05-03T10:46:20.328Z,0.53
2023-05-03T10:47:20.342Z,0.49
2023-05-03T10:48:20.426Z,0.51
2023-05-03T10:49:20.428Z,0.59
2023-05-03T10:50:20.441Z,0.49
2023-05-03T10:51:20.478Z,0.57
2023-05-03T10:52:20.527Z,0.51
2023-05-03T10:53:20.530Z,0.49
2023-05-03T10:54:20.556Z,0.46
2023-05-03T10:55:20.561Z,0.39
2023-05-03T10:56:20.629Z,0.49
2023-05-03T10:57:20.624Z,0.51
2023-05-03T10:58:20.663Z,0.54
2023-05-03T10:59:20.694Z,0.55
2023-05-03T11:00:20.719Z,0.49
2023-05-03T11:01:20.783Z,0.54
2023-05-03T11:02:20.796Z,0.50
2023-05-03T11:03:20.836Z,0.51
2023-05-03T11:04:20.866Z,0.55
2023-05-03T11:05:20.880Z,0.65
2023-05-03T11:06:20.974Z,0.65
2023-05-03T11:07:20.970Z,0.65
2023-05-03T11:08:21.016Z,0.65
2023-05-03T11:09:21.256Z,0.65
2023-05-03T11:10:21.112Z,0.61
2023-05-03T11:11:21.145Z,0.72
2023-05-03T11:12:21.175Z,0.73
2023-05-03T11:13:21.231Z,0.85
2023-05-03T11:14:21.258Z,1.16
2023-05-03T11:15:21.272Z,1.29
2023-05-03T11:16:21.415Z,2.15
2023-05-03T11:17:21.322Z,5.28
2023-05-03T11:18:21.341Z,9.86
2023-05-03T11:19:21.384Z,20.64
2023-05-03T11:20:21.371Z,35.29
2023-05-03T11:21:21.401Z,55.02
2023-05-03T11:22:21.390Z,61.00
2023-05-03T11:23:21.422Z,54.49
2023-05-03T11:24:21.518Z,45.07
2023-05-03T11:25:21.531Z,43.88
2023-05-03T11:26:21.559Z,38.74
2023-05-03T11:27:21.630Z,33.96
2023-05-03T11:28:21.694Z,33.38
2023-05-03T11:29:21.804Z,31.20
2023-05-03T11:30:21.820Z,30.25
2023-05-03T11:31:21.887Z,28.68
2023-05-03T11:32:21.982Z,26.13
2023-05-03T11:33:21.889Z,23.52
2023-05-03T11:34:21.942Z,22.28
2023-05-03T11:35:21.975Z,21.94
2023-05-03T11:36:21.997Z,20.51
2023-05-03T11:37:22.044Z,21.13
2023-05-03T11:38:22.062Z,22.51
2023-05-03T11:39:22.124Z,22.68
2023-05-03T11:40:22.141Z,23.68
2023-05-03T11:41:22.167Z,24.55
2023-05-03T11:42:22.208Z,26.42
2023-05-03T11:43:22.220Z,27.08
2023-05-03T11:44:22.306Z,26.58
2023-05-03T11:45:23.327Z,29.58
2023-05-03T11:46:22.412Z,31.04
2023-05-03T11:47:22.458Z,33.20
2023-05-03T11:48:22.513Z,33.02
2023-05-03T11:49:22.466Z,39.53
2023-05-03T11:50:22.513Z,38.73
2023-05-03T11:51:22.522Z,37.66
2023-05-03T11:52:22.568Z,40.78
2023-05-03T11:53:22.678Z,38.62
2023-05-03T11:54:26.781Z,47.90
2023-05-03T11:55:22.630Z,43.68
2023-05-03T11:56:22.610Z,41.04
2023-05-03T11:57:22.619Z,41.95
2023-05-03T11:58:22.627Z,40.04
2023-05-03T11:59:22.728Z,38.21
2023-05-03T12:00:22.591Z,35.31
2023-05-03T12:01:22.592Z,37.73
2023-05-03T12:02:22.646Z,36.14
2023-05-03T12:04:22.902Z,30.26
2023-05-03T12:05:23.246Z,28.37
2023-05-03T12:06:22.976Z,22.55
2023-05-03T12:07:23.943Z,20.51
2023-05-03T12:08:23.588Z,21.25
2023-05-03T12:09:23.630Z,20.80
2023-05-03T12:10:26.259Z,18.23
2023-05-03T12:11:25.769Z,18.46
2023-05-03T12:12:26.891Z,17.30
2023-05-03T12:13:24.989Z,16.19
2023-05-03T12:14:22.735Z,16.12
2023-05-03T12:15:23.388Z,16.76
2023-05-03T12:16:22.602Z,16.34
2023-05-03T12:17:22.606Z,15.42
2023-05-03T12:18:22.634Z,14.13
2023-05-03T12:19:23.271Z,13.65
2023-05-03T12:22:26.498Z,9.31
2023-05-03T12:23:23.555Z,9.85
2023-05-03T12:24:24.309Z,9.70
2023-05-03T12:25:25.551Z,9.55
2023-05-03T12:26:22.537Z,9.74
2023-05-03T12:27:23.761Z,8.46
2023-05-03T12:28:22.646Z,8.99
2023-05-03T12:29:23.896Z,8.76
2023-05-03T12:30:23.511Z,9.89
2023-05-03T12:31:22.961Z,8.84
2023-05-03T12:32:23.260Z,8.20
2023-05-03T12:33:23.396Z,8.32
2023-05-03T12:34:33.681Z,8.20
2023-05-03T12:35:24.209Z,7.56
2023-05-03T12:36:25.574Z,7.51
2023-05-03T12:37:22.736Z,6.87
2023-05-03T12:39:22.502Z,6.70
2023-05-03T12:40:33.395Z,6.65
2023-05-03T12:41:52.043Z,6.16
2023-05-03T12:42:23.388Z,6.08
2023-05-03T12:43:22.461Z,5.63
2023-05-03T12:45:22.731Z,4.82
2023-05-03T12:46:33.831Z,4.55
2023-05-03T12:47:28.555Z,4.60
2023-05-03T12:48:23.428Z,4.50
2023-05-03T12:49:23.503Z,4.34
2023-05-03T12:50:24.604Z,4.35
2023-05-03T12:51:25.889Z,4.64
2023-05-03T12:52:37.106Z,4.74
2023-05-03T12:54:26.749Z,4.40
2023-05-03T12:55:25.264Z,4.32
2023-05-03T12:56:24.980Z,4.30
2023-05-03T12:58:53.038Z,4.33
2023-05-03T13:00:25.465Z,4.59
2023-05-03T13:02:17.690Z,4.43
2023-05-03T13:03:25.265Z,4.40
2023-05-03T13:04:55.837Z,4.31
2023-05-03T13:05:34.479Z,4.23
2023-05-03T13:06:23.372Z,3.90
2023-05-03T13:07:28.116Z,3.82
2023-05-03T13:08:23.375Z,3.64
2023-05-03T13:09:27.937Z,3.28
2023-05-03T13:10:23.136Z,3.37
2023-05-03T13:11:22.282Z,2.95
2023-05-03T13:12:22.126Z,2.95
2023-05-03T13:13:22.110Z,2.88
2023-05-03T13:14:22.123Z,2.83
2023-05-03T13:15:22.105Z,2.61
2023-05-03T13:16:22.113Z,2.42
2023-05-03T13:17:22.052Z,2.64
2023-05-03T13:18:22.104Z,2.62
2023-05-03T13:19:22.131Z,2.56
2023-05-03T13:20:22.038Z,2.46
2023-05-03T13:21:22.073Z,2.18
2023-05-03T13:22:22.032Z,2.32